createdAt,value
2018-09-17T00:00:46.540Z,101291.65
2018-09-17T00:03:14.990Z,101297.89
2018-09-17T00:05:43.584Z,101294.91
2018-09-17T00:08:12.035Z,101301.56
2018-09-17T00:10:40.631Z,101297.23
2018-09-17T00:13:09.215Z,101301.71
2018-09-17T00:15:37.798Z,101296.02
2018-09-17T00:18:06.782Z,101295.21
2018-09-17T00:20:35.394Z,101300.61
2018-09-17T00:23:03.862Z,101298.48
2018-09-17T00:25:32.260Z,101301.56
2018-09-17T00:28:01.040Z,101301.56
2018-09-17T00:30:29.692Z,101303.32
2018-09-17T00:32:58.981Z,101305.16
2018-09-17T00:35:27.413Z,101300.78
2018-09-17T00:37:55.924Z,101302.58
2018-09-17T00:40:24.477Z,101308.79
2018-09-17T00:42:52.951Z,101304.89
2018-09-17T00:45:21.699Z,101306.69
2018-09-17T00:47:50.226Z,101308.45
2018-09-17T00:50:18.801Z,101314.66
2018-09-17T00:52:47.273Z,101310.69
2018-09-17T00:55:15.695Z,101309.00
2018-09-17T00:57:44.762Z,101309.48
2018-09-17T01:00:13.295Z,101313.91
2018-09-17T01:02:41.888Z,101309.58
2018-09-17T01:05:10.305Z,101321.07
2018-09-17T01:07:38.800Z,101320.66
2018-09-17T01:10:07.352Z,101312.36
2018-09-17T01:12:35.891Z,101307.11
2018-09-17T01:15:04.508Z,101312.47
2018-09-17T01:17:32.964Z,101312.50
2018-09-17T01:20:08.176Z,101316.53
2018-09-17T01:22:36.708Z,101311.80
2018-09-17T01:25:05.248Z,101311.83
2018-09-17T01:27:33.948Z,101312.34
2018-09-17T01:30:02.780Z,101322.94
2018-09-17T01:32:31.920Z,101323.01
2018-09-17T01:35:00.550Z,101327.04
2018-09-17T01:37:29.093Z,101324.06
2018-09-17T01:39:57.663Z,101325.92
2018-09-17T01:42:26.659Z,101318.53
2018-09-17T01:44:56.267Z,101312.47
2018-09-17T01:47:24.887Z,101305.53
2018-09-17T01:49:53.320Z,101298.05
2018-09-17T01:52:22.804Z,101294.55
2018-09-17T01:54:51.426Z,101294.69
2018-09-17T01:57:19.956Z,101292.52
2018-09-17T01:59:48.493Z,101290.05
2018-09-17T02:02:17.542Z,101285.34
2018-09-17T02:04:46.608Z,101287.57
2018-09-17T02:07:15.813Z,101294.20
2018-09-17T02:09:44.280Z,101285.06
2018-09-17T02:12:13.658Z,101286.00
2018-09-17T02:14:43.253Z,101277.67
2018-09-17T02:17:11.915Z,101273.78
2018-09-17T02:19:40.342Z,101273.38
2018-09-17T02:22:10.100Z,101272.59
2018-09-17T02:24:39.064Z,101268.73
2018-09-17T02:27:07.740Z,101269.67
2018-09-17T02:29:36.229Z,101272.03
2018-09-17T02:32:05.715Z,101275.62
2018-09-17T02:34:34.845Z,101275.21
2018-09-17T02:37:03.784Z,101275.24
2018-09-17T02:39:32.284Z,101278.86
2018-09-17T02:42:00.726Z,101273.58
2018-09-17T02:44:29.140Z,101282.31
2018-09-17T02:46:58.123Z,101291.58
2018-09-17T02:49:26.581Z,101292.97
2018-09-17T02:51:55.116Z,101301.31
2018-09-17T02:54:23.502Z,101303.11
2018-09-17T02:56:52.282Z,101298.77
2018-09-17T02:59:20.986Z,101304.46
2018-09-17T03:01:49.529Z,101300.94
2018-09-17T03:04:19.149Z,101299.18
2018-09-17T03:06:47.727Z,101300.09
2018-09-17T03:09:16.156Z,101298.77
2018-09-17T03:11:45.484Z,101300.09
2018-09-17T03:14:14.348Z,101301.00
2018-09-17T03:16:53.972Z,101302.38
2018-09-17T03:19:22.483Z,101302.41
2018-09-17T03:21:51.927Z,101302.00
2018-09-17T03:24:20.423Z,101311.68
2018-09-17T03:26:48.900Z,101315.23
2018-09-17T03:29:18.485Z,101313.09
2018-09-17T03:31:46.883Z,101314.44
2018-09-17T03:34:15.311Z,101315.41
2018-09-17T03:36:43.723Z,101321.19
2018-09-17T03:39:12.286Z,101321.24
2018-09-17T03:41:40.774Z,101322.63
2018-09-17T03:44:09.398Z,101319.98
2018-09-17T03:46:37.843Z,101322.16
2018-09-17T03:49:06.325Z,101321.74
2018-09-17T03:51:35.564Z,101329.27
2018-09-17T03:54:04.732Z,101323.56
2018-09-17T03:56:33.561Z,101320.45
2018-09-17T03:59:02.090Z,101312.13
2018-09-17T04:01:30.641Z,101310.78
2018-09-17T04:03:59.064Z,101309.08
2018-09-17T04:06:27.480Z,101306.44
2018-09-17T04:08:55.910Z,101299.53
2018-09-17T04:11:24.680Z,101289.50
2018-09-17T04:13:53.732Z,101293.02
2018-09-17T04:16:22.228Z,101291.70
2018-09-17T04:18:50.889Z,101293.46
2018-09-17T04:21:19.289Z,101287.36
2018-09-17T04:23:48.908Z,101283.44
2018-09-17T04:26:18.147Z,101280.39
2018-09-17T04:28:46.730Z,101288.69
2018-09-17T04:31:15.224Z,101288.25
2018-09-17T04:33:44.151Z,101287.39
2018-09-17T04:36:13.812Z,101293.08
2018-09-17T04:38:42.497Z,101296.22
2018-09-17T04:41:11.137Z,101306.83
2018-09-17T04:43:39.881Z,101308.20
2018-09-17T04:46:09.078Z,101307.38
2018-09-17T04:48:37.512Z,101308.78
2018-09-17T04:51:06.885Z,101306.64
2018-09-17T04:53:35.631Z,101308.88
2018-09-17T04:56:04.105Z,101300.98
2018-09-17T04:58:32.569Z,101302.30
2018-09-17T05:01:01.049Z,101307.20
2018-09-17T05:03:29.584Z,101312.94
2018-09-17T05:05:58.255Z,101309.01
2018-09-17T05:08:26.717Z,101307.69
2018-09-17T05:10:55.359Z,101306.44
2018-09-17T05:13:24.035Z,101302.59
2018-09-17T05:15:52.766Z,101310.11
2018-09-17T05:18:21.220Z,101312.75
2018-09-17T05:20:49.657Z,101309.64
2018-09-17T05:23:18.108Z,101314.48
2018-09-17T05:25:46.527Z,101321.95
2018-09-17T05:28:15.274Z,101324.59
2018-09-17T05:30:43.713Z,101321.45
2018-09-17T05:33:12.692Z,101321.48
2018-09-17T05:35:41.300Z,101328.90
2018-09-17T05:38:09.889Z,101324.09
2018-09-17T05:40:38.391Z,101326.27
2018-09-17T05:43:06.915Z,101333.73
2018-09-17T05:45:35.416Z,101339.85
2018-09-17T05:48:04.124Z,101343.38
2018-09-17T05:50:33.293Z,101347.73
2018-09-17T05:53:02.243Z,101353.45
2018-09-17T05:55:30.680Z,101348.62
2018-09-17T05:57:59.887Z,101352.58
2018-09-17T06:00:28.597Z,101351.69
2018-09-17T06:02:58.496Z,101348.13
2018-09-17T06:05:27.172Z,101352.92
2018-09-17T06:07:55.809Z,101349.38
2018-09-17T06:10:25.039Z,101352.43
2018-09-17T06:12:53.500Z,101352.41
2018-09-17T06:15:22.028Z,101358.09
2018-09-17T06:17:50.652Z,101358.97
2018-09-17T06:20:19.283Z,101369.46
2018-09-17T06:22:54.789Z,101373.39
2018-09-17T06:25:23.328Z,101380.38
2018-09-17T06:27:51.844Z,101380.78
2018-09-17T06:30:21.017Z,101381.63
2018-09-17T06:32:49.905Z,101383.86
2018-09-17T06:35:18.455Z,101379.87
2018-09-17T06:37:46.945Z,101382.42
2018-09-17T06:40:15.859Z,101386.36
2018-09-17T06:42:44.287Z,101388.94
2018-09-17T06:45:12.745Z,101389.34
2018-09-17T06:47:41.414Z,101387.09
2018-09-17T06:50:10.174Z,101387.42
2018-09-17T06:52:38.620Z,101391.33
2018-09-17T06:55:07.074Z,101390.80
2018-09-17T06:57:35.624Z,101388.52
2018-09-17T07:00:04.396Z,101382.30
2018-09-17T07:02:32.868Z,101381.78
2018-09-17T07:05:01.317Z,101379.46
2018-09-17T07:07:29.815Z,101367.97
2018-09-17T07:10:01.389Z,101366.13
2018-09-17T07:12:30.518Z,101374.83
2018-09-17T07:14:59.176Z,101365.48
2018-09-17T07:17:27.710Z,101367.15
2018-09-17T07:19:56.363Z,101371.42
2018-09-17T07:22:25.092Z,101363.89
2018-09-17T07:24:53.640Z,101361.16
2018-09-17T07:27:22.214Z,101367.16
2018-09-17T07:29:50.792Z,101361.34
2018-09-17T07:32:19.544Z,101360.31
2018-09-17T07:34:48.062Z,101354.88
2018-09-17T07:37:16.690Z,101358.61
2018-09-17T07:39:45.187Z,101356.16
2018-09-17T07:42:13.669Z,101355.52
2018-09-17T07:44:42.076Z,101360.58
2018-09-17T07:47:10.548Z,101369.15
2018-09-17T07:49:38.991Z,101366.67
2018-09-17T07:52:07.701Z,101357.70
2018-09-17T07:54:36.279Z,101362.34
2018-09-17T07:57:05.316Z,101359.89
2018-09-17T07:59:33.743Z,101362.33
2018-09-17T08:02:02.332Z,101360.36
2018-09-17T08:04:30.995Z,101355.73
2018-09-17T08:06:59.532Z,101354.57
2018-09-17T08:09:28.032Z,101351.70
2018-09-17T08:11:56.513Z,101346.64
2018-09-17T08:14:25.046Z,101349.94
2018-09-17T08:16:53.603Z,101348.03
2018-09-17T08:19:22.221Z,101346.04
2018-09-17T08:21:51.752Z,101342.36
2018-09-17T08:24:20.360Z,101346.58
2018-09-17T08:26:48.752Z,101345.95
2018-09-17T08:29:17.600Z,101340.06
2018-09-17T08:31:46.135Z,101346.84
2018-09-17T08:34:14.901Z,101352.83
2018-09-17T08:36:43.593Z,101347.78
2018-09-17T08:39:14.061Z,101344.01
2018-09-17T08:41:43.343Z,101342.80
2018-09-17T08:44:12.832Z,101340.72
2018-09-17T08:46:41.454Z,101330.23
2018-09-17T08:49:10.620Z,101336.05
2018-09-17T08:51:39.080Z,101331.78
2018-09-17T08:54:07.555Z,101331.48
2018-09-17T08:56:41.345Z,101325.00
2018-09-17T08:59:15.165Z,101326.42
2018-09-17T09:01:48.833Z,101324.83
2018-09-17T09:04:23.095Z,101326.24
2018-09-17T09:06:55.342Z,101332.07
2018-09-17T09:09:23.876Z,101327.25
2018-09-17T09:12:01.577Z,101337.81
2018-09-17T09:14:38.214Z,101329.84
2018-09-17T09:17:07.981Z,101324.47
2018-09-17T09:19:36.548Z,101318.55
2018-09-17T09:22:04.972Z,101307.94
2018-09-17T09:24:33.551Z,101310.69
2018-09-17T09:27:02.052Z,101309.95
2018-09-17T09:29:31.281Z,101311.20
2018-09-17T09:32:00.635Z,101311.98
2018-09-17T09:34:29.114Z,101310.98
2018-09-17T09:36:57.746Z,101306.20
2018-09-17T09:39:26.380Z,101301.46
2018-09-17T09:41:54.981Z,101306.70
2018-09-17T09:44:23.432Z,101302.63
2018-09-17T09:46:52.160Z,101298.52
2018-09-17T09:49:20.658Z,101291.13
2018-09-17T09:51:49.112Z,101285.31
2018-09-17T09:54:17.661Z,101288.14
2018-09-17T09:56:46.275Z,101291.27
2018-09-17T09:59:14.869Z,101286.51
2018-09-17T10:01:48.724Z,101281.68
2018-09-17T10:04:21.839Z,101289.58
2018-09-17T10:06:50.845Z,101292.95
2018-09-17T10:09:24.636Z,101293.56
2018-09-17T10:11:58.380Z,101293.88
2018-09-17T10:14:32.046Z,101285.18
2018-09-17T10:17:06.619Z,101282.27
2018-09-17T10:19:35.300Z,101280.95
2018-09-17T10:22:03.867Z,101281.83
2018-09-17T10:24:32.758Z,101276.36
2018-09-17T10:27:01.364Z,101279.63
2018-09-17T10:29:29.824Z,101268.16
2018-09-17T10:31:58.426Z,101274.53
2018-09-17T10:34:27.066Z,101268.14
2018-09-17T10:36:55.650Z,101256.06
2018-09-17T10:39:24.241Z,101255.61
2018-09-17T10:41:52.807Z,101257.01
2018-09-17T10:44:21.429Z,101255.89
2018-09-17T10:46:49.925Z,101253.05
2018-09-17T10:49:18.556Z,101246.02
2018-09-17T10:51:47.144Z,101242.89
2018-09-17T10:54:15.669Z,101240.73
2018-09-17T10:56:44.327Z,101240.45
2018-09-17T10:59:12.953Z,101240.72
2018-09-17T11:01:41.409Z,101232.67
2018-09-17T11:04:10.043Z,101235.52
2018-09-17T11:06:38.764Z,101237.41
2018-09-17T11:09:10.364Z,101228.19
2018-09-17T11:11:39.528Z,101218.29
2018-09-17T11:14:08.126Z,101215.07
2018-09-17T11:16:37.302Z,101216.61
2018-09-17T11:19:05.812Z,101209.95
2018-09-17T11:21:34.321Z,101208.33
2018-09-17T11:24:03.495Z,101206.97
2018-09-17T11:26:32.288Z,101211.42
2018-09-17T11:29:00.765Z,101208.50
2018-09-17T11:31:29.612Z,101212.50
2018-09-17T11:33:58.045Z,101204.88
2018-09-17T11:36:26.773Z,101205.74
2018-09-17T11:38:55.183Z,101200.04
2018-09-17T11:41:24.539Z,101197.03
2018-09-17T11:43:53.051Z,101191.91
2018-09-17T11:46:21.511Z,101188.35
2018-09-17T11:48:50.693Z,101188.39
2018-09-17T11:51:19.577Z,101177.98
2018-09-17T11:53:48.259Z,101175.55
2018-09-17T11:56:16.812Z,101177.16
2018-09-17T11:58:45.273Z,101174.11
2018-09-17T12:01:19.755Z,101172.89
2018-09-17T12:03:53.581Z,101169.95
2018-09-17T12:06:27.339Z,101174.14
2018-09-17T12:08:55.796Z,101166.18
2018-09-17T12:11:24.344Z,101167.45
2018-09-17T12:13:52.978Z,101165.84
2018-09-17T12:16:21.439Z,101163.48
2018-09-17T12:18:49.953Z,101156.09
2018-09-17T12:21:18.395Z,101155.33
2018-09-17T12:23:47.111Z,101154.80
2018-09-17T12:26:15.764Z,101149.97
2018-09-17T12:28:44.200Z,101148.66
2018-09-17T12:31:13.469Z,101144.01
2018-09-17T12:33:41.979Z,101151.00
2018-09-17T12:36:10.620Z,101136.27
2018-09-17T12:38:39.041Z,101135.58
2018-09-17T12:41:07.848Z,101133.47
2018-09-17T12:43:36.432Z,101133.17
2018-09-17T12:46:05.112Z,101130.97
2018-09-17T12:48:33.657Z,101130.39
2018-09-17T12:51:02.407Z,101127.98
2018-09-17T12:53:30.998Z,101117.63
2018-09-17T12:55:59.578Z,101112.09
2018-09-17T12:58:28.149Z,101112.19
2018-09-17T13:00:56.793Z,101114.30
2018-09-17T13:03:25.793Z,101106.37
2018-09-17T13:05:54.289Z,101108.98
2018-09-17T13:08:22.792Z,101099.25
2018-09-17T13:10:51.369Z,101097.92
2018-09-17T13:13:20.663Z,101094.61
2018-09-17T13:15:55.545Z,101094.97
2018-09-17T13:18:25.547Z,101092.88
2018-09-17T13:20:54.069Z,101092.24
2018-09-17T13:23:29.179Z,101087.41
2018-09-17T13:25:58.332Z,101087.97
2018-09-17T13:28:33.047Z,101084.33
2018-09-17T13:31:01.578Z,101077.72
2018-09-17T13:33:30.385Z,101079.80
2018-09-17T13:35:58.954Z,101069.94
2018-09-17T13:38:27.512Z,101069.05
2018-09-17T13:40:56.078Z,101065.86
2018-09-17T13:43:24.835Z,101065.31
2018-09-17T13:45:53.813Z,101064.31
2018-09-17T13:48:22.566Z,101068.27
2018-09-17T13:50:51.079Z,101056.44
2018-09-17T13:53:19.855Z,101060.07
2018-09-17T13:55:48.290Z,101055.82
2018-09-17T13:58:16.831Z,101052.89
2018-09-17T14:00:45.340Z,101052.98
2018-09-17T14:03:14.790Z,101048.36
2018-09-17T14:05:44.110Z,101049.53
2018-09-17T14:08:12.624Z,101044.97
2018-09-17T14:10:41.112Z,101036.67
2018-09-17T14:13:09.792Z,101032.84
2018-09-17T14:15:38.717Z,101031.83
2018-09-17T14:18:07.210Z,101022.23
2018-09-17T14:20:36.230Z,101012.58
2018-09-17T14:23:04.744Z,101011.31
2018-09-17T14:25:34.453Z,101004.81
2018-09-17T14:28:05.578Z,100999.70
2018-09-17T14:30:34.416Z,100997.80
2018-09-17T14:33:08.295Z,100999.34
2018-09-17T14:35:37.113Z,100993.02
2018-09-17T14:38:05.682Z,100987.83
2018-09-17T14:40:34.237Z,100992.48
2018-09-17T14:43:02.848Z,100984.88
2018-09-17T14:45:31.588Z,100981.38
2018-09-17T14:48:00.074Z,100978.05
2018-09-17T14:50:28.580Z,100978.09
2018-09-17T14:52:58.457Z,100975.06
2018-09-17T14:55:27.123Z,100972.18
2018-09-17T14:57:55.723Z,100971.86
2018-09-17T15:00:24.188Z,100964.70
2018-09-17T15:02:52.830Z,100957.96
2018-09-17T15:05:21.501Z,100960.16
2018-09-17T15:07:50.046Z,100951.52
2018-09-17T15:10:18.493Z,100950.05
2018-09-17T15:12:47.227Z,100955.05
2018-09-17T15:15:16.002Z,100950.67
2018-09-17T15:17:44.447Z,100952.73
2018-09-17T15:20:13.495Z,100949.63
2018-09-17T15:22:42.298Z,100951.28
2018-09-17T15:25:13.812Z,100938.86
2018-09-17T15:27:42.731Z,100934.38
2018-09-17T15:30:11.641Z,100939.48
2018-09-17T15:32:40.351Z,100927.77
2018-09-17T15:35:08.815Z,100938.13
2018-09-17T15:37:37.332Z,100933.57
2018-09-17T15:40:06.525Z,100929.75
2018-09-17T15:42:35.012Z,100929.44
2018-09-17T15:45:03.596Z,100923.09
2018-09-17T15:47:32.272Z,100928.84
2018-09-17T15:50:01.152Z,100925.19
2018-09-17T15:52:29.755Z,100920.38
2018-09-17T15:54:58.306Z,100916.84
2018-09-17T15:57:26.776Z,100917.61
2018-09-17T15:59:55.422Z,100912.64
2018-09-17T16:02:24.025Z,100912.25
2018-09-17T16:04:52.773Z,100901.41
2018-09-17T16:07:24.131Z,100908.66
2018-09-17T16:09:52.986Z,100908.41
2018-09-17T16:12:21.732Z,100901.07
2018-09-17T16:14:50.619Z,100896.91
2018-09-17T16:17:19.351Z,100901.05
2018-09-17T16:19:47.846Z,100901.63
2018-09-17T16:22:16.422Z,100905.59
2018-09-17T16:24:45.565Z,100900.92
2018-09-17T16:27:14.590Z,100899.66
2018-09-17T16:29:43.352Z,100896.05
2018-09-17T16:32:12.607Z,100896.59
2018-09-17T16:34:41.269Z,100900.55
2018-09-17T16:37:09.872Z,100894.50
2018-09-17T16:39:38.439Z,100894.08
2018-09-17T16:42:08.079Z,100891.17
2018-09-17T16:44:36.722Z,100884.74
2018-09-17T16:47:05.286Z,100887.80
2018-09-17T16:49:33.908Z,100890.41
2018-09-17T16:52:02.424Z,100885.79
2018-09-17T16:54:30.894Z,100882.88
2018-09-17T16:57:00.004Z,100884.73
2018-09-17T16:59:28.945Z,100887.91
2018-09-17T17:01:57.505Z,100888.69
2018-09-17T17:04:26.013Z,100884.02
2018-09-17T17:06:54.492Z,100884.65
2018-09-17T17:09:23.171Z,100884.41
2018-09-17T17:11:51.832Z,100882.34
2018-09-17T17:14:20.464Z,100888.33
2018-09-17T17:16:49.659Z,100888.55
2018-09-17T17:19:18.192Z,100883.79
2018-09-17T17:21:47.016Z,100881.86
2018-09-17T17:24:16.278Z,100879.86
2018-09-17T17:26:44.875Z,100880.57
2018-09-17T17:29:13.533Z,100867.86
2018-09-17T17:31:42.185Z,100873.58
2018-09-17T17:34:10.867Z,100871.63
2018-09-17T17:36:46.291Z,100866.96
2018-09-17T17:39:14.985Z,100873.97
2018-09-17T17:41:44.094Z,100869.66
2018-09-17T17:44:12.724Z,100868.78
2018-09-17T17:46:41.535Z,100868.49
2018-09-17T17:49:10.722Z,100868.44
2018-09-17T17:51:39.410Z,100864.27
2018-09-17T17:54:07.963Z,100863.33
2018-09-17T17:56:36.619Z,100868.02
2018-09-17T17:59:05.189Z,100863.93
2018-09-17T18:01:33.908Z,100864.59
2018-09-17T18:04:02.567Z,100863.45
2018-09-17T18:06:31.081Z,100857.51
2018-09-17T18:09:00.214Z,100855.11
2018-09-17T18:11:29.017Z,100858.84
2018-09-17T18:13:57.501Z,100854.58
2018-09-17T18:16:32.524Z,100862.41
2018-09-17T18:19:02.493Z,100865.72
2018-09-17T18:21:31.429Z,100871.23
2018-09-17T18:24:00.141Z,100874.08
2018-09-17T18:26:29.519Z,100874.61
2018-09-17T18:28:57.971Z,100875.70
2018-09-17T18:31:26.656Z,100874.86
2018-09-17T18:33:55.199Z,100878.92
2018-09-17T18:36:23.773Z,100871.39
2018-09-17T18:38:52.639Z,100870.12
2018-09-17T18:41:21.305Z,100868.05
2018-09-17T18:43:50.244Z,100864.56
2018-09-17T18:46:18.871Z,100864.00
2018-09-17T18:48:47.341Z,100860.13
2018-09-17T18:51:15.973Z,100856.05
2018-09-17T18:53:44.486Z,100856.09
2018-09-17T18:56:13.161Z,100850.64
2018-09-17T18:58:41.636Z,100860.00
2018-09-17T19:01:10.232Z,100854.70
2018-09-17T19:03:38.727Z,100849.73
2018-09-17T19:06:07.505Z,100850.12
2018-09-17T19:08:35.956Z,100851.86
2018-09-17T19:11:06.036Z,100845.56
2018-09-17T19:13:35.009Z,100847.77
2018-09-17T19:16:03.579Z,100843.22
2018-09-17T19:18:32.239Z,100847.13
2018-09-17T19:21:01.569Z,100847.92
2018-09-17T19:23:35.181Z,100848.29
2018-09-17T19:26:03.973Z,100846.83
2018-09-17T19:28:37.704Z,100845.48
2018-09-17T19:31:06.234Z,100844.47
2018-09-17T19:33:34.725Z,100845.20
2018-09-17T19:36:03.325Z,100852.16
2018-09-17T19:38:36.927Z,100849.02
2018-09-17T19:41:05.493Z,100840.91
2018-09-17T19:43:34.142Z,100841.69
2018-09-17T19:46:20.464Z,100841.09
2018-09-17T19:48:49.458Z,100842.31
2018-09-17T19:51:23.284Z,100841.75
2018-09-17T19:53:51.710Z,100845.27
2018-09-17T19:56:20.487Z,100838.95
2018-09-17T19:58:54.239Z,100840.18
2018-09-17T20:01:22.767Z,100843.58
2018-09-17T20:03:51.389Z,100836.34
2018-09-17T20:06:22.783Z,100836.69
2018-09-17T20:08:51.387Z,100834.41
2018-09-17T20:13:47.741Z,100834.56
2018-09-17T20:16:16.420Z,100830.34
2018-09-17T20:18:44.907Z,100832.89
2018-09-17T20:21:13.358Z,100830.03
2018-09-17T20:23:42.559Z,100834.21
2018-09-17T20:26:11.372Z,100825.72
2018-09-17T20:28:40.034Z,100821.98
2018-09-17T20:31:08.576Z,100825.86
2018-09-17T20:33:37.559Z,100820.41
2018-09-17T20:36:06.230Z,100823.72
2018-09-17T20:38:34.774Z,100827.48
2018-09-17T20:41:03.360Z,100828.11
2018-09-17T20:43:32.409Z,100826.09
2018-09-17T20:46:01.341Z,100824.56
2018-09-17T20:48:29.864Z,100822.08
2018-09-17T20:50:58.851Z,100816.53
2018-09-17T20:53:27.653Z,100822.03
2018-09-17T20:55:56.506Z,100819.69
2018-09-17T20:58:24.971Z,100825.19
2018-09-17T21:00:53.453Z,100828.03
2018-09-17T21:03:21.901Z,100822.96
2018-09-17T21:05:51.232Z,100821.32
2018-09-17T21:08:19.965Z,100820.17
2018-09-17T21:10:48.666Z,100818.70
2018-09-17T21:13:17.281Z,100817.63
2018-09-17T21:15:45.811Z,100819.58
2018-09-17T21:18:14.304Z,100821.16
2018-09-17T21:20:42.903Z,100814.23
2018-09-17T21:23:11.416Z,100812.66
2018-09-17T21:25:40.576Z,100810.73
2018-09-17T21:28:09.144Z,100807.38
2018-09-17T21:30:38.207Z,100806.64
2018-09-17T21:33:07.068Z,100803.70
2018-09-17T21:35:35.630Z,100799.97
2018-09-17T21:38:04.953Z,100805.52
2018-09-17T21:40:33.381Z,100805.70
2018-09-17T21:43:01.937Z,100804.98
2018-09-17T21:45:30.494Z,100800.30
2018-09-17T21:47:59.096Z,100800.86
2018-09-17T21:50:27.626Z,100799.70
2018-09-17T21:52:56.302Z,100798.05
2018-09-17T21:55:24.805Z,100796.97
2018-09-17T21:57:53.341Z,100797.14
2018-09-17T22:00:21.865Z,100796.81
2018-09-17T22:02:50.284Z,100790.41
2018-09-17T22:05:18.801Z,100786.77
2018-09-17T22:07:47.377Z,100793.55
2018-09-17T22:10:15.924Z,100790.22
2018-09-17T22:12:44.594Z,100793.78
2018-09-17T22:15:13.202Z,100792.16
2018-09-17T22:17:41.633Z,100797.08
2018-09-17T22:20:10.302Z,100792.84
2018-09-17T22:22:38.841Z,100793.33
2018-09-17T22:25:07.391Z,100788.09
2018-09-17T22:27:36.364Z,100792.63
2018-09-17T22:30:04.907Z,100796.29
2018-09-17T22:32:33.409Z,100785.67
2018-09-17T22:35:02.953Z,100783.50
2018-09-17T22:37:31.555Z,100775.60
2018-09-17T22:40:00.096Z,100776.93
2018-09-17T22:42:28.966Z,100771.69
2018-09-17T22:44:57.404Z,100765.99
2018-09-17T22:47:25.845Z,100769.69
2018-09-17T22:49:54.364Z,100769.39
2018-09-17T22:52:22.831Z,100768.45
2018-09-17T22:54:51.277Z,100764.19
2018-09-17T22:57:19.808Z,100755.91
2018-09-17T22:59:48.460Z,100761.21
2018-09-17T23:02:16.896Z,100754.19
2018-09-17T23:04:45.519Z,100745.74
2018-09-17T23:07:14.090Z,100751.86
2018-09-17T23:09:42.609Z,100754.52
2018-09-17T23:12:17.366Z,100753.25
2018-09-17T23:14:45.972Z,100752.86
2018-09-17T23:17:14.585Z,100741.38
2018-09-17T23:19:43.017Z,100737.48
2018-09-17T23:22:11.588Z,100738.17
2018-09-17T23:24:40.155Z,100737.40
2018-09-17T23:27:08.580Z,100729.92
2018-09-17T23:29:37.156Z,100729.60
2018-09-17T23:32:06.024Z,100725.69
2018-09-17T23:34:34.640Z,100728.44
2018-09-17T23:37:03.135Z,100728.44
2018-09-17T23:39:31.606Z,100723.75
2018-09-17T23:42:00.451Z,100719.84
2018-09-17T23:44:29.083Z,100724.38
2018-09-17T23:46:57.539Z,100726.70
2018-09-17T23:49:25.963Z,100722.88
2018-09-17T23:51:54.376Z,100728.67
2018-09-17T23:54:22.764Z,100722.11
2018-09-17T23:56:51.222Z,100716.42
2018-09-17T23:59:19.814Z,100718.69
